sensor_id;sensor_type;location;lat;lon;timestamp;temperature;humidity
1277;DHT22;631;51.024;13.826;2023-07-29T00:00:42;19.80;1.00
1277;DHT22;631;51.024;13.826;2023-07-29T00:03:08;19.70;2.10
1277;DHT22;631;51.024;13.826;2023-07-29T00:05:33;19.60;12.70
1277;DHT22;631;51.024;13.826;2023-07-29T00:07:59;19.60;23.30
1277;DHT22;631;51.024;13.826;2023-07-29T00:10:26;19.50;35.60
1277;DHT22;631;51.024;13.826;2023-07-29T00:12:52;19.50;45.20
1277;DHT22;631;51.024;13.826;2023-07-29T00:15:18;19.40;48.90
1277;DHT22;631;51.024;13.826;2023-07-29T00:17:43;19.40;51.40
1277;DHT22;631;51.024;13.826;2023-07-29T00:20:09;19.40;52.60
1277;DHT22;631;51.024;13.826;2023-07-29T00:22:35;19.30;64.70
1277;DHT22;631;51.024;13.826;2023-07-29T00:25:00;19.30;67.60
1277;DHT22;631;51.024;13.826;2023-07-29T00:27:26;19.20;79.30
1277;DHT22;631;51.024;13.826;2023-07-29T00:29:52;19.20;95.70
1277;DHT22;631;51.024;13.826;2023-07-29T00:32:17;19.10;99.90
1277;DHT22;631;51.024;13.826;2023-07-29T00:34:43;19.10;99.90
1277;DHT22;631;51.024;13.826;2023-07-29T00:37:09;19.10;99.90
1277;DHT22;631;51.024;13.826;2023-07-29T00:39:36;19.10;99.90
1277;DHT22;631;51.024;13.826;2023-07-29T00:42:03;19.10;99.90
1277;DHT22;631;51.024;13.826;2023-07-29T00:44:29;19.10;99.90
1277;DHT22;631;51.024;13.826;2023-07-29T00:46:57;19.10;99.90
1277;DHT22;631;51.024;13.826;2023-07-29T00:49:24;19.10;99.90
1277;DHT22;631;51.024;13.826;2023-07-29T00:51:50;19.10;99.90
1277;DHT22;631;51.024;13.826;2023-07-29T00:54:15;19.10;99.90
1277;DHT22;631;51.024;13.826;2023-07-29T00:56:41;19.10;99.90
1277;DHT22;631;51.024;13.826;2023-07-29T00:59:07;19.00;99.90
1277;DHT22;631;51.024;13.826;2023-07-29T01:01:34;19.00;99.90
1277;DHT22;631;51.024;13.826;2023-07-29T01:04:00;19.00;99.90
1277;DHT22;631;51.024;13.826;2023-07-29T01:06:41;19.00;99.90
1277;DHT22;631;51.024;13.826;2023-07-29T01:12:21;18.90;99.90
1277;DHT22;631;51.024;13.826;2023-07-29T01:17:33;18.80;99.90
1277;DHT22;631;51.024;13.826;2023-07-29T01:20:16;18.80;99.90
1277;DHT22;631;51.024;13.826;2023-07-29T01:22:43;18.80;99.90
1277;DHT22;631;51.024;13.826;2023-07-29T01:25:09;18.80;99.90
1277;DHT22;631;51.024;13.826;2023-07-29T01:27:34;18.70;99.90
1277;DHT22;631;51.024;13.826;2023-07-29T01:30:01;18.70;99.90
1277;DHT22;631;51.024;13.826;2023-07-29T01:32:34;18.70;99.90
1277;DHT22;631;51.024;13.826;2023-07-29T01:35:24;18.70;99.90
1277;DHT22;631;51.024;13.826;2023-07-29T01:38:08;18.60;99.90
1277;DHT22;631;51.024;13.826;2023-07-29T01:40:35;18.60;99.90
1277;DHT22;631;51.024;13.826;2023-07-29T01:43:01;18.60;99.90
1277;DHT22;631;51.024;13.826;2023-07-29T01:45:27;18.50;99.90
1277;DHT22;631;51.024;13.826;2023-07-29T01:47:56;18.50;99.90
1277;DHT22;631;51.024;13.826;2023-07-29T01:50:22;18.40;99.90
1277;DHT22;631;51.024;13.826;2023-07-29T01:52:48;18.40;99.90
1277;DHT22;631;51.024;13.826;2023-07-29T01:55:13;18.40;99.90
1277;DHT22;631;51.024;13.826;2023-07-29T01:57:39;18.40;99.90
1277;DHT22;631;51.024;13.826;2023-07-29T02:00:05;18.30;99.90
1277;DHT22;631;51.024;13.826;2023-07-29T02:02:31;18.30;99.90
1277;DHT22;631;51.024;13.826;2023-07-29T02:04:56;18.30;99.90
1277;DHT22;631;51.024;13.826;2023-07-29T02:07:22;18.30;99.90
1277;DHT22;631;51.024;13.826;2023-07-29T02:09:48;18.20;99.90
1277;DHT22;631;51.024;13.826;2023-07-29T02:12:13;18.20;99.90
1277;DHT22;631;51.024;13.826;2023-07-29T02:14:39;18.10;99.90
1277;DHT22;631;51.024;13.826;2023-07-29T02:17:04;18.00;99.90
1277;DHT22;631;51.024;13.826;2023-07-29T02:19:30;18.00;99.90
1277;DHT22;631;51.024;13.826;2023-07-29T02:21:55;18.00;99.90
1277;DHT22;631;51.024;13.826;2023-07-29T02:24:21;18.00;99.90
1277;DHT22;631;51.024;13.826;2023-07-29T02:26:47;18.00;99.90
1277;DHT22;631;51.024;13.826;2023-07-29T02:29:13;18.00;99.90
1277;DHT22;631;51.024;13.826;2023-07-29T02:31:38;17.90;99.90
1277;DHT22;631;51.024;13.826;2023-07-29T02:34:04;17.90;99.90
1277;DHT22;631;51.024;13.826;2023-07-29T02:36:30;17.90;99.90
1277;DHT22;631;51.024;13.826;2023-07-29T02:38:55;17.90;99.90
1277;DHT22;631;51.024;13.826;2023-07-29T02:41:21;17.90;99.90
1277;DHT22;631;51.024;13.826;2023-07-29T02:43:50;18.00;99.90
1277;DHT22;631;51.024;13.826;2023-07-29T02:46:16;17.90;99.90
1277;DHT22;631;51.024;13.826;2023-07-29T02:48:43;18.00;99.90
1277;DHT22;631;51.024;13.826;2023-07-29T02:51:09;18.00;99.90
1277;DHT22;631;51.024;13.826;2023-07-29T02:53:35;18.00;99.90
1277;DHT22;631;51.024;13.826;2023-07-29T02:56:02;18.00;99.90
1277;DHT22;631;51.024;13.826;2023-07-29T02:58:28;17.90;99.90
1277;DHT22;631;51.024;13.826;2023-07-29T03:01:00;18.00;99.90
1277;DHT22;631;51.024;13.826;2023-07-29T03:03:27;18.00;99.90
1277;DHT22;631;51.024;13.826;2023-07-29T03:06:04;17.90;99.90
1277;DHT22;631;51.024;13.826;2023-07-29T03:08:30;17.90;99.90
1277;DHT22;631;51.024;13.826;2023-07-29T03:10:56;18.00;99.90
1277;DHT22;631;51.024;13.826;2023-07-29T03:13:22;18.00;99.90
1277;DHT22;631;51.024;13.826;2023-07-29T03:15:48;18.00;99.90
1277;DHT22;631;51.024;13.826;2023-07-29T03:18:14;18.10;99.90
1277;DHT22;631;51.024;13.826;2023-07-29T03:20:40;18.10;99.90
1277;DHT22;631;51.024;13.826;2023-07-29T03:23:06;18.10;99.90
1277;DHT22;631;51.024;13.826;2023-07-29T03:25:32;18.20;99.90
1277;DHT22;631;51.024;13.826;2023-07-29T03:27:57;18.20;99.90
1277;DHT22;631;51.024;13.826;2023-07-29T03:30:23;18.20;99.90
1277;DHT22;631;51.024;13.826;2023-07-29T03:32:49;18.30;99.90
1277;DHT22;631;51.024;13.826;2023-07-29T03:35:15;18.40;99.90
1277;DHT22;631;51.024;13.826;2023-07-29T03:37:41;18.50;99.90
1277;DHT22;631;51.024;13.826;2023-07-29T03:40:07;18.50;99.90
1277;DHT22;631;51.024;13.826;2023-07-29T03:42:35;18.60;99.90
1277;DHT22;631;51.024;13.826;2023-07-29T03:45:00;18.60;99.90
1277;DHT22;631;51.024;13.826;2023-07-29T03:47:26;18.70;99.90
1277;DHT22;631;51.024;13.826;2023-07-29T03:49:52;18.70;99.90
1277;DHT22;631;51.024;13.826;2023-07-29T03:52:17;18.70;99.90
1277;DHT22;631;51.024;13.826;2023-07-29T03:54:43;18.70;99.90
1277;DHT22;631;51.024;13.826;2023-07-29T03:57:08;18.70;99.90
1277;DHT22;631;51.024;13.826;2023-07-29T03:59:34;18.70;99.90
1277;DHT22;631;51.024;13.826;2023-07-29T04:02:00;18.70;99.90
1277;DHT22;631;51.024;13.826;2023-07-29T04:04:25;18.70;99.90
1277;DHT22;631;51.024;13.826;2023-07-29T04:06:51;18.70;99.90
1277;DHT22;631;51.024;13.826;2023-07-29T04:09:17;18.70;99.90
1277;DHT22;631;51.024;13.826;2023-07-29T04:11:43;18.80;99.90
1277;DHT22;631;51.024;13.826;2023-07-29T04:14:08;18.90;99.90
1277;DHT22;631;51.024;13.826;2023-07-29T04:16:34;18.90;99.90
1277;DHT22;631;51.024;13.826;2023-07-29T04:19:00;19.00;99.90
1277;DHT22;631;51.024;13.826;2023-07-29T04:21:25;19.10;99.90
1277;DHT22;631;51.024;13.826;2023-07-29T04:23:51;19.20;99.90
1277;DHT22;631;51.024;13.826;2023-07-29T04:26:16;19.20;99.90
1277;DHT22;631;51.024;13.826;2023-07-29T04:28:43;19.30;99.90
1277;DHT22;631;51.024;13.826;2023-07-29T04:31:09;19.40;99.90
1277;DHT22;631;51.024;13.826;2023-07-29T04:33:35;19.50;99.90
1277;DHT22;631;51.024;13.826;2023-07-29T04:36:00;19.60;99.90
1277;DHT22;631;51.024;13.826;2023-07-29T04:38:31;19.70;99.90
1277;DHT22;631;51.024;13.826;2023-07-29T04:40:58;19.70;99.90
1277;DHT22;631;51.024;13.826;2023-07-29T04:43:35;19.80;99.90
1277;DHT22;631;51.024;13.826;2023-07-29T04:46:01;19.90;99.90
1277;DHT22;631;51.024;13.826;2023-07-29T04:48:26;19.90;99.90
1277;DHT22;631;51.024;13.826;2023-07-29T04:50:52;19.90;99.90
1277;DHT22;631;51.024;13.826;2023-07-29T04:53:17;20.00;99.90
1277;DHT22;631;51.024;13.826;2023-07-29T04:55:43;20.00;99.90
1277;DHT22;631;51.024;13.826;2023-07-29T04:58:10;20.10;99.90
1277;DHT22;631;51.024;13.826;2023-07-29T05:00:35;20.10;99.90
1277;DHT22;631;51.024;13.826;2023-07-29T05:03:01;20.20;99.90
1277;DHT22;631;51.024;13.826;2023-07-29T05:05:27;20.10;98.50
1277;DHT22;631;51.024;13.826;2023-07-29T05:07:52;20.20;98.30
1277;DHT22;631;51.024;13.826;2023-07-29T05:10:18;20.30;91.20
1277;DHT22;631;51.024;13.826;2023-07-29T05:12:44;20.30;99.90
1277;DHT22;631;51.024;13.826;2023-07-29T05:15:10;20.50;96.20
1277;DHT22;631;51.024;13.826;2023-07-29T05:17:36;20.50;92.70
1277;DHT22;631;51.024;13.826;2023-07-29T05:20:01;20.60;68.00
1277;DHT22;631;51.024;13.826;2023-07-29T05:22:27;20.60;57.80
1277;DHT22;631;51.024;13.826;2023-07-29T05:24:53;20.70;59.30
1277;DHT22;631;51.024;13.826;2023-07-29T05:27:19;20.80;51.70
1277;DHT22;631;51.024;13.826;2023-07-29T05:29:44;20.80;44.50
1277;DHT22;631;51.024;13.826;2023-07-29T05:32:10;20.80;46.90
1277;DHT22;631;51.024;13.826;2023-07-29T05:34:36;20.90;48.90
1277;DHT22;631;51.024;13.826;2023-07-29T05:37:01;21.00;49.70
1277;DHT22;631;51.024;13.826;2023-07-29T05:39:27;21.10;32.00
1277;DHT22;631;51.024;13.826;2023-07-29T05:41:52;21.30;31.80
1277;DHT22;631;51.024;13.826;2023-07-29T05:44:18;21.50;28.80
1277;DHT22;631;51.024;13.826;2023-07-29T05:46:44;21.60;4.50
1277;DHT22;631;51.024;13.826;2023-07-29T05:49:09;21.80;1.00
1277;DHT22;631;51.024;13.826;2023-07-29T05:51:35;21.90;1.00
1277;DHT22;631;51.024;13.826;2023-07-29T05:54:00;22.00;1.00
1277;DHT22;631;51.024;13.826;2023-07-29T05:56:26;22.10;1.00
1277;DHT22;631;51.024;13.826;2023-07-29T05:58:52;22.20;1.00
1277;DHT22;631;51.024;13.826;2023-07-29T06:01:18;22.30;1.00
1277;DHT22;631;51.024;13.826;2023-07-29T06:03:46;22.50;1.00
1277;DHT22;631;51.024;13.826;2023-07-29T06:06:12;22.60;1.00
1277;DHT22;631;51.024;13.826;2023-07-29T06:08:38;22.60;1.00
1277;DHT22;631;51.024;13.826;2023-07-29T06:11:03;22.60;1.00
1277;DHT22;631;51.024;13.826;2023-07-29T06:13:32;22.70;1.00
1277;DHT22;631;51.024;13.826;2023-07-29T06:15:57;22.60;1.00
1277;DHT22;631;51.024;13.826;2023-07-29T06:18:23;22.60;1.00
1277;DHT22;631;51.024;13.826;2023-07-29T06:20:48;22.50;1.00
1277;DHT22;631;51.024;13.826;2023-07-29T06:23:14;22.50;1.00
1277;DHT22;631;51.024;13.826;2023-07-29T06:25:40;22.50;1.00
1277;DHT22;631;51.024;13.826;2023-07-29T06:28:05;22.60;1.00
1277;DHT22;631;51.024;13.826;2023-07-29T06:30:31;22.60;1.00
1277;DHT22;631;51.024;13.826;2023-07-29T06:32:56;22.80;1.00
1277;DHT22;631;51.024;13.826;2023-07-29T06:35:22;22.90;1.00
1277;DHT22;631;51.024;13.826;2023-07-29T06:37:47;23.00;1.00
1277;DHT22;631;51.024;13.826;2023-07-29T06:40:13;23.10;1.00
1277;DHT22;631;51.024;13.826;2023-07-29T06:42:39;23.10;1.00
1277;DHT22;631;51.024;13.826;2023-07-29T06:45:05;23.10;1.00
1277;DHT22;631;51.024;13.826;2023-07-29T06:47:32;23.20;1.00
1277;DHT22;631;51.024;13.826;2023-07-29T06:49:57;23.40;1.00
1277;DHT22;631;51.024;13.826;2023-07-29T06:52:23;23.60;99.90
1277;DHT22;631;51.024;13.826;2023-07-29T06:54:48;23.70;99.90
1277;DHT22;631;51.024;13.826;2023-07-29T06:57:14;23.80;99.90
1277;DHT22;631;51.024;13.826;2023-07-29T06:59:40;23.90;99.90
1277;DHT22;631;51.024;13.826;2023-07-29T07:02:06;24.00;99.90
1277;DHT22;631;51.024;13.826;2023-07-29T07:04:32;24.20;99.90
1277;DHT22;631;51.024;13.826;2023-07-29T07:06:58;24.00;99.90
1277;DHT22;631;51.024;13.826;2023-07-29T07:09:23;24.20;99.90
1277;DHT22;631;51.024;13.826;2023-07-29T07:11:49;24.30;99.90
1277;DHT22;631;51.024;13.826;2023-07-29T07:14:15;24.40;99.90
1277;DHT22;631;51.024;13.826;2023-07-29T07:16:40;24.10;99.90
1277;DHT22;631;51.024;13.826;2023-07-29T07:19:06;24.00;99.90
1277;DHT22;631;51.024;13.826;2023-07-29T07:21:31;24.10;99.90
1277;DHT22;631;51.024;13.826;2023-07-29T07:24:00;24.10;99.90
1277;DHT22;631;51.024;13.826;2023-07-29T07:26:25;24.30;99.90
1277;DHT22;631;51.024;13.826;2023-07-29T07:28:51;24.30;99.90
1277;DHT22;631;51.024;13.826;2023-07-29T07:31:17;24.60;99.90
1277;DHT22;631;51.024;13.826;2023-07-29T07:33:43;24.70;99.90
1277;DHT22;631;51.024;13.826;2023-07-29T07:36:08;24.70;1.00
1277;DHT22;631;51.024;13.826;2023-07-29T07:38:34;24.70;1.00
1277;DHT22;631;51.024;13.826;2023-07-29T07:40:59;24.70;1.00
1277;DHT22;631;51.024;13.826;2023-07-29T07:43:25;24.90;1.00
1277;DHT22;631;51.024;13.826;2023-07-29T07:45:56;25.10;1.00
1277;DHT22;631;51.024;13.826;2023-07-29T07:48:22;25.20;1.00
1277;DHT22;631;51.024;13.826;2023-07-29T07:50:48;25.30;1.00
1277;DHT22;631;51.024;13.826;2023-07-29T07:53:13;25.40;1.00
1277;DHT22;631;51.024;13.826;2023-07-29T07:55:39;25.50;1.00
1277;DHT22;631;51.024;13.826;2023-07-29T07:58:05;25.60;1.00
1277;DHT22;631;51.024;13.826;2023-07-29T08:00:30;25.40;1.00
1277;DHT22;631;51.024;13.826;2023-07-29T08:02:56;25.70;1.00
1277;DHT22;631;51.024;13.826;2023-07-29T08:05:21;25.70;1.00
1277;DHT22;631;51.024;13.826;2023-07-29T08:07:47;25.70;1.00
1277;DHT22;631;51.024;13.826;2023-07-29T08:10:12;25.40;1.00
1277;DHT22;631;51.024;13.826;2023-07-29T08:12:38;25.40;1.00
1277;DHT22;631;51.024;13.826;2023-07-29T08:15:04;25.30;1.00
1277;DHT22;631;51.024;13.826;2023-07-29T08:17:30;25.10;1.00
1277;DHT22;631;51.024;13.826;2023-07-29T08:19:56;25.10;1.00
1277;DHT22;631;51.024;13.826;2023-07-29T08:22:21;25.20;1.00
1277;DHT22;631;51.024;13.826;2023-07-29T08:24:47;25.30;1.00
1277;DHT22;631;51.024;13.826;2023-07-29T08:27:12;25.50;1.00
1277;DHT22;631;51.024;13.826;2023-07-29T08:29:38;25.60;1.00
1277;DHT22;631;51.024;13.826;2023-07-29T08:32:04;25.70;1.00
1277;DHT22;631;51.024;13.826;2023-07-29T08:34:30;25.50;99.90
1277;DHT22;631;51.024;13.826;2023-07-29T08:36:55;25.40;99.90
1277;DHT22;631;51.024;13.826;2023-07-29T08:39:21;25.10;99.90
1277;DHT22;631;51.024;13.826;2023-07-29T08:41:56;25.00;99.90
1277;DHT22;631;51.024;13.826;2023-07-29T08:44:34;24.80;99.90
1277;DHT22;631;51.024;13.826;2023-07-29T08:47:01;24.90;99.90
1277;DHT22;631;51.024;13.826;2023-07-29T08:49:27;25.10;1.00
1277;DHT22;631;51.024;13.826;2023-07-29T08:51:54;25.40;99.90
1277;DHT22;631;51.024;13.826;2023-07-29T08:54:20;25.60;99.90
1277;DHT22;631;51.024;13.826;2023-07-29T08:56:46;25.60;99.90
1277;DHT22;631;51.024;13.826;2023-07-29T08:59:12;25.70;99.90
1277;DHT22;631;51.024;13.826;2023-07-29T09:01:39;26.00;99.90
1277;DHT22;631;51.024;13.826;2023-07-29T09:04:04;26.10;99.90
1277;DHT22;631;51.024;13.826;2023-07-29T09:06:31;26.30;99.90
1277;DHT22;631;51.024;13.826;2023-07-29T09:08:58;26.20;99.90
1277;DHT22;631;51.024;13.826;2023-07-29T09:11:24;26.20;99.90
1277;DHT22;631;51.024;13.826;2023-07-29T09:13:50;26.10;99.90
1277;DHT22;631;51.024;13.826;2023-07-29T09:16:16;26.00;99.90
1277;DHT22;631;51.024;13.826;2023-07-29T09:18:41;25.90;99.90
1277;DHT22;631;51.024;13.826;2023-07-29T09:21:07;25.90;99.90
1277;DHT22;631;51.024;13.826;2023-07-29T09:23:44;25.90;99.90
1277;DHT22;631;51.024;13.826;2023-07-29T09:26:10;26.10;99.90
1277;DHT22;631;51.024;13.826;2023-07-29T09:28:38;26.20;99.90
1277;DHT22;631;51.024;13.826;2023-07-29T09:31:04;26.30;99.90
1277;DHT22;631;51.024;13.826;2023-07-29T09:33:32;26.50;99.90
1277;DHT22;631;51.024;13.826;2023-07-29T09:36:00;26.60;99.90
1277;DHT22;631;51.024;13.826;2023-07-29T09:38:27;26.70;99.90
1277;DHT22;631;51.024;13.826;2023-07-29T09:40:55;26.70;99.90
1277;DHT22;631;51.024;13.826;2023-07-29T09:43:25;26.70;99.90
1277;DHT22;631;51.024;13.826;2023-07-29T09:45:52;26.80;99.90
1277;DHT22;631;51.024;13.826;2023-07-29T09:48:22;26.80;99.90
1277;DHT22;631;51.024;13.826;2023-07-29T09:50:48;26.70;99.90
1277;DHT22;631;51.024;13.826;2023-07-29T09:53:14;26.70;99.90
1277;DHT22;631;51.024;13.826;2023-07-29T09:55:40;26.80;99.90
1277;DHT22;631;51.024;13.826;2023-07-29T09:58:11;26.90;99.90
1277;DHT22;631;51.024;13.826;2023-07-29T10:00:37;26.90;99.90
1277;DHT22;631;51.024;13.826;2023-07-29T10:03:04;26.90;99.90
1277;DHT22;631;51.024;13.826;2023-07-29T10:05:31;26.70;99.90
1277;DHT22;631;51.024;13.826;2023-07-29T10:07:57;26.80;99.90
1277;DHT22;631;51.024;13.826;2023-07-29T10:10:23;26.80;99.90
1277;DHT22;631;51.024;13.826;2023-07-29T10:12:50;26.20;99.90
1277;DHT22;631;51.024;13.826;2023-07-29T10:15:15;25.30;1.00
1277;DHT22;631;51.024;13.826;2023-07-29T10:17:41;24.50;12.70
1277;DHT22;631;51.024;13.826;2023-07-29T10:20:10;23.70;1.00
1277;DHT22;631;51.024;13.826;2023-07-29T10:22:39;23.10;99.90
1277;DHT22;631;51.024;13.826;2023-07-29T10:25:08;22.60;99.90
1277;DHT22;631;51.024;13.826;2023-07-29T10:28:04;22.30;1.00
1277;DHT22;631;51.024;13.826;2023-07-29T10:30:28;22.20;1.00
1277;DHT22;631;51.024;13.826;2023-07-29T10:32:56;22.30;1.00
1277;DHT22;631;51.024;13.826;2023-07-29T10:35:23;22.40;1.00
1277;DHT22;631;51.024;13.826;2023-07-29T10:37:51;22.60;1.00
1277;DHT22;631;51.024;13.826;2023-07-29T10:40:18;23.10;1.00
1277;DHT22;631;51.024;13.826;2023-07-29T10:45:51;23.70;1.00
1277;DHT22;631;51.024;13.826;2023-07-29T10:51:36;24.20;1.00
1277;DHT22;631;51.024;13.826;2023-07-29T10:56:33;24.90;99.90
1277;DHT22;631;51.024;13.826;2023-07-29T11:01:39;25.40;99.90
1277;DHT22;631;51.024;13.826;2023-07-29T11:07:18;25.70;99.90
1277;DHT22;631;51.024;13.826;2023-07-29T11:17:38;25.50;1.00
1277;DHT22;631;51.024;13.826;2023-07-29T11:20:05;25.40;1.00
1277;DHT22;631;51.024;13.826;2023-07-29T11:22:32;25.20;1.00
1277;DHT22;631;51.024;13.826;2023-07-29T11:24:58;25.10;1.00
1277;DHT22;631;51.024;13.826;2023-07-29T11:27:24;24.80;1.00
1277;DHT22;631;51.024;13.826;2023-07-29T11:29:50;24.70;1.00
1277;DHT22;631;51.024;13.826;2023-07-29T11:32:16;24.70;1.00
1277;DHT22;631;51.024;13.826;2023-07-29T11:34:42;24.90;1.00
1277;DHT22;631;51.024;13.826;2023-07-29T11:37:11;24.90;1.00
1277;DHT22;631;51.024;13.826;2023-07-29T11:39:44;24.90;1.00
1277;DHT22;631;51.024;13.826;2023-07-29T11:42:11;24.70;1.00
1277;DHT22;631;51.024;13.826;2023-07-29T11:44:37;24.80;1.00
1277;DHT22;631;51.024;13.826;2023-07-29T11:47:10;24.90;1.00
1277;DHT22;631;51.024;13.826;2023-07-29T11:49:36;25.30;1.00
1277;DHT22;631;51.024;13.826;2023-07-29T11:52:05;25.60;1.00
1277;DHT22;631;51.024;13.826;2023-07-29T11:54:31;25.50;1.00
1277;DHT22;631;51.024;13.826;2023-07-29T11:56:57;25.60;1.00
1277;DHT22;631;51.024;13.826;2023-07-29T11:59:23;25.70;1.00
1277;DHT22;631;51.024;13.826;2023-07-29T12:01:49;25.60;1.00
1277;DHT22;631;51.024;13.826;2023-07-29T12:04:14;25.70;1.00
1277;DHT22;631;51.024;13.826;2023-07-29T12:06:40;25.60;1.00
1277;DHT22;631;51.024;13.826;2023-07-29T12:09:06;25.60;1.00
1277;DHT22;631;51.024;13.826;2023-07-29T12:11:34;25.70;1.00
1277;DHT22;631;51.024;13.826;2023-07-29T12:14:00;25.70;1.00
1277;DHT22;631;51.024;13.826;2023-07-29T12:16:26;25.90;1.00
1277;DHT22;631;51.024;13.826;2023-07-29T12:18:52;25.80;1.00
1277;DHT22;631;51.024;13.826;2023-07-29T12:21:21;25.90;1.00
1277;DHT22;631;51.024;13.826;2023-07-29T12:23:46;26.00;1.00
1277;DHT22;631;51.024;13.826;2023-07-29T12:26:12;26.10;1.00
1277;DHT22;631;51.024;13.826;2023-07-29T12:28:38;25.90;1.00
1277;DHT22;631;51.024;13.826;2023-07-29T12:31:07;25.90;1.00
1277;DHT22;631;51.024;13.826;2023-07-29T12:33:35;25.40;99.90
1277;DHT22;631;51.024;13.826;2023-07-29T12:36:01;25.20;99.90
1277;DHT22;631;51.024;13.826;2023-07-29T12:38:27;25.10;99.90
1277;DHT22;631;51.024;13.826;2023-07-29T12:40:53;25.20;99.90
1277;DHT22;631;51.024;13.826;2023-07-29T12:43:19;25.30;99.90
1277;DHT22;631;51.024;13.826;2023-07-29T12:45:45;25.20;99.90
1277;DHT22;631;51.024;13.826;2023-07-29T12:48:11;25.30;99.90
1277;DHT22;631;51.024;13.826;2023-07-29T12:50:37;25.30;99.90
1277;DHT22;631;51.024;13.826;2023-07-29T12:53:04;25.40;99.90
1277;DHT22;631;51.024;13.826;2023-07-29T12:55:30;25.50;99.90
1277;DHT22;631;51.024;13.826;2023-07-29T12:57:56;25.80;99.90
1277;DHT22;631;51.024;13.826;2023-07-29T13:00:23;26.10;99.90
1277;DHT22;631;51.024;13.826;2023-07-29T13:02:49;26.40;99.90
1277;DHT22;631;51.024;13.826;2023-07-29T13:05:14;26.60;99.90
1277;DHT22;631;51.024;13.826;2023-07-29T13:07:40;27.40;99.90
1277;DHT22;631;51.024;13.826;2023-07-29T13:10:07;28.10;99.90
1277;DHT22;631;51.024;13.826;2023-07-29T13:12:33;28.40;99.90
1277;DHT22;631;51.024;13.826;2023-07-29T13:14:59;28.70;99.90
1277;DHT22;631;51.024;13.826;2023-07-29T13:17:24;29.20;99.90
1277;DHT22;631;51.024;13.826;2023-07-29T13:19:50;29.40;99.90
1277;DHT22;631;51.024;13.826;2023-07-29T13:22:16;28.90;99.90
1277;DHT22;631;51.024;13.826;2023-07-29T13:24:42;29.00;99.90
1277;DHT22;631;51.024;13.826;2023-07-29T13:27:07;28.40;99.90
1277;DHT22;631;51.024;13.826;2023-07-29T13:29:33;28.30;99.90
1277;DHT22;631;51.024;13.826;2023-07-29T13:31:58;28.40;99.90
1277;DHT22;631;51.024;13.826;2023-07-29T13:34:24;28.20;99.90
1277;DHT22;631;51.024;13.826;2023-07-29T13:36:50;27.80;99.90
1277;DHT22;631;51.024;13.826;2023-07-29T13:39:15;27.50;99.90
1277;DHT22;631;51.024;13.826;2023-07-29T13:41:41;27.40;99.90
1277;DHT22;631;51.024;13.826;2023-07-29T13:44:07;27.50;99.90
1277;DHT22;631;51.024;13.826;2023-07-29T13:46:33;27.80;99.90
1277;DHT22;631;51.024;13.826;2023-07-29T13:48:58;27.80;99.90
1277;DHT22;631;51.024;13.826;2023-07-29T13:51:24;27.60;99.90
1277;DHT22;631;51.024;13.826;2023-07-29T13:53:50;27.40;99.90
1277;DHT22;631;51.024;13.826;2023-07-29T13:56:15;27.90;99.90
1277;DHT22;631;51.024;13.826;2023-07-29T13:58:41;28.50;99.90
1277;DHT22;631;51.024;13.826;2023-07-29T14:01:06;29.00;99.90
1277;DHT22;631;51.024;13.826;2023-07-29T14:03:32;29.00;99.90
1277;DHT22;631;51.024;13.826;2023-07-29T14:05:58;29.40;99.90
1277;DHT22;631;51.024;13.826;2023-07-29T14:08:23;29.30;99.90
1277;DHT22;631;51.024;13.826;2023-07-29T14:10:49;29.30;99.90
1277;DHT22;631;51.024;13.826;2023-07-29T14:13:15;28.20;99.90
1277;DHT22;631;51.024;13.826;2023-07-29T14:15:41;28.20;99.90
1277;DHT22;631;51.024;13.826;2023-07-29T14:18:07;28.60;99.90
1277;DHT22;631;51.024;13.826;2023-07-29T14:20:33;28.80;99.90
1277;DHT22;631;51.024;13.826;2023-07-29T14:22:59;29.30;99.90
1277;DHT22;631;51.024;13.826;2023-07-29T14:25:24;29.80;99.90
1277;DHT22;631;51.024;13.826;2023-07-29T14:27:50;29.90;99.90
1277;DHT22;631;51.024;13.826;2023-07-29T14:30:16;30.10;99.90
1277;DHT22;631;51.024;13.826;2023-07-29T14:32:41;30.40;99.90
1277;DHT22;631;51.024;13.826;2023-07-29T14:35:07;30.80;99.90
1277;DHT22;631;51.024;13.826;2023-07-29T14:37:34;30.90;99.90
1277;DHT22;631;51.024;13.826;2023-07-29T14:40:00;30.30;99.90
1277;DHT22;631;51.024;13.826;2023-07-29T14:42:26;30.10;99.90
1277;DHT22;631;51.024;13.826;2023-07-29T14:44:53;30.30;99.90
1277;DHT22;631;51.024;13.826;2023-07-29T14:47:18;30.70;99.90
1277;DHT22;631;51.024;13.826;2023-07-29T14:49:45;30.90;99.90
1277;DHT22;631;51.024;13.826;2023-07-29T14:52:10;30.90;99.90
1277;DHT22;631;51.024;13.826;2023-07-29T14:54:36;30.90;99.90
1277;DHT22;631;51.024;13.826;2023-07-29T14:57:02;31.10;99.90
1277;DHT22;631;51.024;13.826;2023-07-29T14:59:28;31.30;99.90
1277;DHT22;631;51.024;13.826;2023-07-29T15:01:53;31.40;99.90
1277;DHT22;631;51.024;13.826;2023-07-29T15:04:19;31.70;99.90
1277;DHT22;631;51.024;13.826;2023-07-29T15:06:44;31.90;99.90
1277;DHT22;631;51.024;13.826;2023-07-29T15:09:11;32.30;99.90
1277;DHT22;631;51.024;13.826;2023-07-29T15:11:36;31.90;99.90
1277;DHT22;631;51.024;13.826;2023-07-29T15:14:02;31.90;99.90
1277;DHT22;631;51.024;13.826;2023-07-29T15:16:31;32.20;99.90
1277;DHT22;631;51.024;13.826;2023-07-29T15:18:59;32.10;99.90
1277;DHT22;631;51.024;13.826;2023-07-29T15:21:25;31.50;99.90
1277;DHT22;631;51.024;13.826;2023-07-29T15:23:50;31.20;99.90
1277;DHT22;631;51.024;13.826;2023-07-29T15:26:16;31.30;99.90
1277;DHT22;631;51.024;13.826;2023-07-29T15:28:42;31.50;99.90
1277;DHT22;631;51.024;13.826;2023-07-29T15:31:07;31.70;99.90
1277;DHT22;631;51.024;13.826;2023-07-29T15:33:33;32.10;99.90
1277;DHT22;631;51.024;13.826;2023-07-29T15:36:00;31.90;99.90
1277;DHT22;631;51.024;13.826;2023-07-29T15:38:25;31.40;99.90
1277;DHT22;631;51.024;13.826;2023-07-29T15:40:51;31.20;99.90
1277;DHT22;631;51.024;13.826;2023-07-29T15:43:17;31.20;99.90
1277;DHT22;631;51.024;13.826;2023-07-29T15:45:43;31.40;99.90
1277;DHT22;631;51.024;13.826;2023-07-29T15:48:10;31.20;99.90
1277;DHT22;631;51.024;13.826;2023-07-29T15:50:36;31.20;99.90
1277;DHT22;631;51.024;13.826;2023-07-29T15:53:01;30.90;99.90
1277;DHT22;631;51.024;13.826;2023-07-29T15:55:28;30.40;99.90
1277;DHT22;631;51.024;13.826;2023-07-29T15:57:54;29.50;99.90
1277;DHT22;631;51.024;13.826;2023-07-29T16:00:20;29.50;99.90
1277;DHT22;631;51.024;13.826;2023-07-29T16:02:47;29.40;99.90
1277;DHT22;631;51.024;13.826;2023-07-29T16:05:13;29.60;99.90
1277;DHT22;631;51.024;13.826;2023-07-29T16:07:39;29.40;99.90
1277;DHT22;631;51.024;13.826;2023-07-29T16:10:05;28.70;99.90
1277;DHT22;631;51.024;13.826;2023-07-29T16:12:31;28.40;99.90
1277;DHT22;631;51.024;13.826;2023-07-29T16:15:05;28.00;99.90
1277;DHT22;631;51.024;13.826;2023-07-29T16:17:30;27.70;99.90
1277;DHT22;631;51.024;13.826;2023-07-29T16:19:58;27.50;99.90
1277;DHT22;631;51.024;13.826;2023-07-29T16:22:25;27.50;99.90
1277;DHT22;631;51.024;13.826;2023-07-29T16:24:51;27.40;99.90
1277;DHT22;631;51.024;13.826;2023-07-29T16:27:17;27.30;99.90